Home > Products > Valid Products > TAF

000
FTUS42 KMFL 261133
TAFMIA
TAF
KMIA 261133Z 2612/2712 33005KT P6SM SCT045 SCT070
     FM261400 07012KT P6SM SCT035
     FM270100 08008KT P6SM SCT040
     FM270800 VRB03KT P6SM SKC=



000
FTUS42 KMFL 261133
TAFAPF
TAF
KAPF 261133Z 2612/2712 05006KT P6SM SKC
     FM261400 05012KT P6SM SKC
     FM270100 06006KT P6SM FEW040=



000
FTUS42 KMFL 261133
TAFPBI
TAF
KPBI 261133Z 2612/2712 32006KT P6SM FEW045
     FM261400 07015KT P6SM SCT035
     FM270200 08010KT P6SM SCT040=



000
FTUS42 KMFL 261133
TAFFLL
TAF
KFLL 261133Z 2612/2712 34006KT P6SM BKN045
     FM261400 08015KT P6SM SCT040
     FM270300 09008KT P6SM SCT040=



000
FTUS42 KMFL 260527
TAFFLL
TAF
KFLL 260527Z 2606/2706 08011KT P6SM FEW035
     FM261700 08016G26KT P6SM BKN035
     FM270100 08009KT P6SM SCT040 BKN250=



000
FTUS42 KMFL 260527
TAFPBI
TAF
KPBI 260527Z 2606/2706 06008KT P6SM FEW040
     FM261600 08017G27KT P6SM BKN035
     FM270100 07010KT P6SM SCT040 BKN250=



000
FTUS42 KMFL 260141 AAA
TAFFLL
TAF AMD
KFLL 260141Z 2602/2624 06007KT P6SM FEW035
     FM261400 07015KT P6SM SCT035=



000
FTUS42 KMFL 260140 AAA
TAFPBI
TAF AMD
KPBI 260140Z 2602/2624 06009KT P6SM FEW035
     FM261400 07015KT P6SM SCT035=



000
FTUS42 KMFL 252101 AAA
TAFFLL
TAF AMD
KFLL 252101Z 2521/2618 06013KT P6SM FEW035
     FM260300 07010KT P6SM FEW030
     FM261400 08015KT P6SM SCT035=



000
FTUS42 KMFL 251725
TAFAPF
TAF
KAPF 251725Z 2518/2618 09012KT P6SM SCT045
     FM260200 06008KT P6SM SCT080
     FM261400 07012KT P6SM SCT040=



000
FTUS42 KMFL 250537
TAFFLL
TAF
KFLL 250537Z 2506/2606 10011KT P6SM FEW025 SCT060
     FM251400 08013KT P6SM SCT035
     FM251700 07017G27KT P6SM SCT030 SCT100
     FM260300 06009KT P6SM FEW030 SCT250=



000
FTUS42 KMFL 250537
TAFAPF
TAF
KAPF 250537Z 2506/2606 08006KT P6SM FEW030
     FM251400 08011KT P6SM SCT030 SCT070
     FM251800 07015G25KT P6SM VCTS SCT030CB BKN070 BKN250
     FM260200 05008KT P6SM FEW030 SCT080 SCT250=



000
FTUS42 KMFL 250537
TAFMIA
TAF
KMIA 250537Z 2506/2606 09010KT P6SM FEW030 SCT100
     FM251400 07012KT P6SM SCT035
     FM251700 07017G27KT P6SM SCT030 SCT100
     FM260300 06008KT P6SM FEW030 SCT250=



000
FTUS42 KMFL 241931 AAA
TAFMIA
TAF AMD
KMIA 241931Z 2420/2518 11012KT P6SM SHRA VCTS BKN030CB BKN060
      TEMPO 2420/2421 VRB10G20KT 2SM +TSRA BKN025CB
     FM250200 08008KT P6SM SCT060
     FM251400 07012KT P6SM SCT035=



000
FTUS42 KMFL 241720
TAFFLL
TAF
KFLL 241720Z 2418/2518 10012KT P6SM SHRA VCTS SCT035CB SCT045
      BKN060
     FM250100 09010KT P6SM SCT060
     FM251400 08015KT P6SM SCT035=



000
FTUS42 KMFL 241720
TAFAPF
TAF
KAPF 241720Z 2418/2518 28008KT P6SM VCSH SCT030 BKN060
     FM250100 06006KT P6SM SCT080
     FM251400 08010KT P6SM SCT035=



000
FTUS42 KMFL 241720
TAFMIA
TAF
KMIA 241720Z 2418/2518 11010KT P6SM SHRA VCTS BKN030CB BKN060
     FM250200 08008KT P6SM SCT060
     FM251400 07012KT P6SM SCT035=



000
FTUS42 KMFL 241720
TAFPBI
TAF
KPBI 241720Z 2418/2518 10012KT P6SM SHRA VCTS SCT015CB BKN030
     FM250100 08010KT P6SM FEW025 SCT060
     FM251400 07015KT P6SM SCT035=



000
FTUS42 KMFL 241523 AAB
TAFFLL
TAF AMD
KFLL 241523Z 2415/2512 09008KT P6SM VCSH SCT035 SCT250
     FM241700 08012KT P6SM VCTS SCT035CB BKN060
     FM250100 09008KT P6SM SCT060=



000
FTUS42 KMFL 241504 AAA
TAFFLL
TAF AMD
KFLL 241504Z 2415/2512 09008KT P6SM SCT035 SCT250
     FM241700 08012KT P6SM VCTS SCT035CB BKN060
     FM250100 09008KT P6SM SCT060=



000
FTUS42 KMFL 241504 AAA
TAFAPF
TAF AMD
KAPF 241504Z 2415/2512 07006KT P6SM SKC
     FM241700 28008KT P6SM VCTS SCT035CB BKN060
     FM250000 06006KT P6SM SCT080=



000
FTUS42 KMFL 241504 AAA
TAFMIA
TAF AMD
KMIA 241504Z 2415/2512 VRB05KT P6SM SCT035 SCT250
     FM241700 07012KT P6SM VCTS SCT035CB BKN060
     FM250100 08008KT P6SM SCT060=



000
FTUS42 KMFL 241504 AAA
TAFPBI
TAF AMD
KPBI 241504Z 2415/2512 10010KT P6SM BKN030 BKN250
     FM241700 08012KT P6SM VCTS SCT035CB BKN060
     FM250100 08010KT P6SM FEW025 SCT060=



000
FTUS42 KMFL 240938 AAA
TAFFLL
TAF AMD
KFLL 240938Z 2410/2506 VRB05KT P6SM FEW030 SCT070 SCT250
     FM241300 09008KT P6SM SCT035 SCT250
     FM241700 08013KT P6SM VCSH SCT035 BKN080 BKN250
     FM250200 09009KT P6SM FEW025 SCT060 BKN250=



000
FTUS42 KMFL 240938 AAA
TAFPBI
TAF AMD
KPBI 240938Z 2410/2506 VRB03KT P6SM FEW035 SCT060 SCT250
     FM241300 08007KT P6SM SCT035 SCT250
     FM241600 06013KT P6SM VCTS SCT035CB BKN080
     FM250200 09010KT P6SM FEW025 SCT060 BKN250=



000
FTUS42 KMFL 240938 AAA
TAFAPF
TAF AMD
KAPF 240938Z 2410/2506 VRB04KT P6SM FEW030 SCT070 SCT250
     FM241400 09006KT P6SM SCT030 SCT250
     FM241700 28009KT P6SM VCSH SCT030 SCT050 SCT250
     FM250000 07008KT P6SM FEW030 SCT100 SCT250=



000
FTUS42 KMFL 240938 AAA
TAFMIA
TAF AMD
KMIA 240938Z 2410/2506 VRB03KT P6SM FEW030 SCT070 SCT250
     FM241300 08006KT P6SM SCT035 SCT250
     FM241700 07012KT P6SM VCTS SCT040CB BKN080
     FM250200 08009KT P6SM FEW025 SCT060 BKN250=



000
FTUS42 KMFL 232339
TAFAPF
TAF
KAPF 232339Z 2400/2424 28008KT P6SM SKC
     FM240100 VRB04KT P6SM SCT250
     FM241400 07006KT P6SM SCT030
     FM241800 28008KT P6SM VCSH SCT040 SCT250=



000
FTUS42 KMFL 232339
TAFPBI
TAF
KPBI 232339Z 2400/2424 08008KT P6SM VCTS FEW040CB SCT090 BKN250
     FM240200 VRB03KT P6SM VCSH SCT035 SCT060 SCT250
     FM241300 05008KT P6SM VCSH SCT035
     FM241600 08012KT P6SM VCSH SCT035 BKN080=



000
FTUS42 KMFL 232339
TAFFLL
TAF
KFLL 232339Z 2400/2424 VRB06KT P6SM VCTS SCT040CB SCT080 BKN250
     FM240200 VRB03KT P6SM FEW030 SCT090 BKN250
     FM241300 06008KT P6SM SCT035 SCT250
     FM241600 08012G20KT P6SM VCSH SCT040 BKN080=



000
FTUS42 KMFL 232339
TAFMIA
TAF
KMIA 232339Z 2400/2424 VRB05KT P6SM VCTS SCT040CB SCT070 SCT110
     FM240200 00000KT P6SM FEW030 SCT090 BKN250
     FM241300 05006KT P6SM SCT035 SCT250
     FM241700 07010G18KT P6SM VCTS SCT040CB BKN080=



    US Dept of Commerce
    National Oceanic and Atmospheric Administration
    National Weather Service
    1325 East West Highway
    Silver Spring, MD 20910
    Page Author: NWS Internet Services Team
Disclaimer
Information Quality
Credits
Glossary
Privacy Policy
Freedom of Information Act (FOIA)
About Us
Career Opportunities